Terminal Aerodrome Forecast
Issued by NWS

Home | Current Version | Previous Version | Text Only | Print | Product List | Glossary On
Versions: 1 2 3 4 5 6 7 8 9 10 11 12 13 14 15 16
000
FTAK31 PAJN 181700
TAFAPG
TAF
PAPG 181721Z 1818/1918 VRB05KT P6SM VCSH BKN050 OVC100
     FM181900 09010KT P6SM -RA BKN035 OVC060
     FM182300 11010G16KT 5SM -RA BR BKN030 OVC040
     FM190300 09007KT 5SM -RA BR BKN020 OVC040
     FM191100 10005KT P6SM VCSH BKN030 OVC040
     FM191500 11005KT P6SM BKN040 OVC050
      AMD LTD TO CLD VIS AND WIND 1906/1915=

USA.gov is the U.S. government's official web portal to all federal, state and local government web resources and services.